createdAt,value
2022-12-23T00:00:42.004Z,21.35
2022-12-23T00:03:08.861Z,24.05
2022-12-23T00:05:39.602Z,19.55
2022-12-23T00:08:07.563Z,16.75
2022-12-23T00:10:35.219Z,18.25
2022-12-23T00:13:20.647Z,20.52
2022-12-23T00:15:47.360Z,20.23
2022-12-23T00:18:14.799Z,18.15
2022-12-23T00:20:41.471Z,17.40
2022-12-23T00:23:08.162Z,17.25
2022-12-23T00:25:41.212Z,15.90
2022-12-23T00:28:10.349Z,19.42
2022-12-23T00:30:38.299Z,17.10
2022-12-23T00:33:08.173Z,17.10
2022-12-23T00:35:34.822Z,13.13
2022-12-23T00:38:01.477Z,13.65
2022-12-23T00:40:46.840Z,16.10
2022-12-23T00:43:13.455Z,13.38
2022-12-23T00:45:40.118Z,12.98
2022-12-23T00:48:25.481Z,14.38
2022-12-23T00:50:53.389Z,16.05
2022-12-23T00:53:21.108Z,15.27
2022-12-23T00:55:48.029Z,13.65
2022-12-23T00:58:15.919Z,15.73
2022-12-23T01:01:01.820Z,16.42
2022-12-23T01:03:47.825Z,14.65
2022-12-23T01:06:14.737Z,12.32
2022-12-23T01:08:41.887Z,16.52
2022-12-23T01:11:10.396Z,16.27
2022-12-23T01:13:37.871Z,14.68
2022-12-23T01:16:14.985Z,13.68
2022-12-23T01:18:44.113Z,13.90
2022-12-23T01:21:13.902Z,15.73
2022-12-23T01:23:40.993Z,17.20
2022-12-23T01:26:08.554Z,17.05
2022-12-23T01:28:35.893Z,15.98
2022-12-23T01:31:04.749Z,15.38
2022-12-23T01:33:32.432Z,13.45
2022-12-23T01:36:00.459Z,13.68
2022-12-23T01:38:27.137Z,21.42
2022-12-23T01:40:53.824Z,24.05
2022-12-23T01:43:20.719Z,22.00
2022-12-23T01:45:47.523Z,23.80
2022-12-23T01:48:23.833Z,24.38
2022-12-23T01:50:58.303Z,26.60
2022-12-23T01:53:40.640Z,27.38
2022-12-23T01:56:37.147Z,25.80
2022-12-23T01:59:09.432Z,27.25
2022-12-23T02:01:54.871Z,28.05
2022-12-23T02:04:24.490Z,27.85
2022-12-23T02:07:10.274Z,27.35
2022-12-23T02:09:38.793Z,26.42
2022-12-23T02:12:36.559Z,25.42
2022-12-23T02:15:31.512Z,27.80
2022-12-23T02:18:33.028Z,25.20
2022-12-23T02:21:08.855Z,21.80
2022-12-23T02:24:28.965Z,21.73
2022-12-23T02:27:12.283Z,22.80
2022-12-23T02:30:03.394Z,24.85
2022-12-23T02:32:59.063Z,27.65
2022-12-23T02:35:43.357Z,20.55
2022-12-23T02:38:30.946Z,22.40
2022-12-23T02:41:18.393Z,24.38
2022-12-23T02:44:01.992Z,27.67
2022-12-23T02:46:37.069Z,32.47
2022-12-23T02:49:11.108Z,25.67
2022-12-23T02:51:41.607Z,26.30
2022-12-23T02:54:11.820Z,24.13
2022-12-23T02:56:40.220Z,27.38
2022-12-23T02:59:12.489Z,24.73
2022-12-23T03:01:40.021Z,25.75
2022-12-23T03:04:07.084Z,27.70
2022-12-23T03:06:38.701Z,27.65
2022-12-23T03:09:05.389Z,26.85
2022-12-23T03:11:51.727Z,25.90
2022-12-23T03:14:27.515Z,23.25
2022-12-23T03:17:12.986Z,27.88
2022-12-23T03:19:57.879Z,28.10
2022-12-23T03:22:30.179Z,31.20
2022-12-23T03:25:17.024Z,29.63
2022-12-23T03:27:47.263Z,28.15
2022-12-23T03:30:16.209Z,28.27
2022-12-23T03:32:55.790Z,28.20
2022-12-23T03:35:45.842Z,28.25
2022-12-23T03:38:13.290Z,31.45
2022-12-23T03:40:43.686Z,26.23
2022-12-23T03:43:19.741Z,29.20
2022-12-23T03:45:52.931Z,29.40
2022-12-23T03:48:33.970Z,28.17
2022-12-23T03:51:05.836Z,29.42
2022-12-23T03:53:39.271Z,30.15
2022-12-23T03:56:09.083Z,28.25
2022-12-23T03:58:47.629Z,27.95
2022-12-23T04:01:35.597Z,32.55
2022-12-23T04:04:16.827Z,26.08
2022-12-23T04:07:00.870Z,29.77
2022-12-23T04:09:29.185Z,30.50
2022-12-23T04:11:56.937Z,25.80
2022-12-23T04:14:23.606Z,24.42
2022-12-23T04:16:55.662Z,25.23
2022-12-23T04:19:22.350Z,24.52
2022-12-23T04:21:49.026Z,24.15
2022-12-23T04:24:15.713Z,29.30
2022-12-23T04:26:42.374Z,26.58
2022-12-23T04:29:09.075Z,28.38
2022-12-23T04:31:35.764Z,26.25
2022-12-23T04:34:02.441Z,27.58
2022-12-23T04:36:29.132Z,23.63
2022-12-23T04:38:55.784Z,26.48
2022-12-23T04:41:22.852Z,25.27
2022-12-23T04:43:52.969Z,27.80
2022-12-23T04:46:20.549Z,23.52
2022-12-23T04:48:47.335Z,20.98
2022-12-23T04:51:13.984Z,23.95
2022-12-23T04:53:40.691Z,26.67
2022-12-23T04:56:10.372Z,24.67
2022-12-23T04:58:37.051Z,23.20
2022-12-23T05:01:09.046Z,20.70
2022-12-23T05:03:35.959Z,22.60
2022-12-23T05:06:03.259Z,22.70
2022-12-23T05:08:30.414Z,20.77
2022-12-23T05:10:57.386Z,20.02
2022-12-23T05:13:24.538Z,18.02
2022-12-23T05:15:53.110Z,23.55
2022-12-23T05:18:20.323Z,20.73
2022-12-23T05:20:47.036Z,19.55
2022-12-23T05:23:13.752Z,18.88
2022-12-23T05:25:40.608Z,19.30
2022-12-23T05:28:08.220Z,18.65
2022-12-23T05:30:34.860Z,19.02
2022-12-23T05:33:01.583Z,16.52
2022-12-23T05:35:28.277Z,18.73
2022-12-23T05:37:54.913Z,15.27
2022-12-23T05:40:29.357Z,15.43
2022-12-23T05:42:59.800Z,17.85
2022-12-23T05:45:26.614Z,19.27
2022-12-23T05:47:53.395Z,17.38
2022-12-23T05:50:20.079Z,17.45
2022-12-23T05:52:48.566Z,17.92
2022-12-23T05:55:15.323Z,17.00
2022-12-23T05:57:42.008Z,16.88
2022-12-23T06:00:09.791Z,14.73
2022-12-23T06:02:39.430Z,17.48
2022-12-23T06:05:06.443Z,15.98
2022-12-23T06:07:33.086Z,16.15
2022-12-23T06:09:59.752Z,15.68
2022-12-23T06:12:26.407Z,15.90
2022-12-23T06:14:53.087Z,17.48
2022-12-23T06:17:19.845Z,17.00
2022-12-23T06:19:47.586Z,15.00
2022-12-23T06:22:14.440Z,16.15
2022-12-23T06:24:41.127Z,14.85
2022-12-23T06:27:07.805Z,17.27
2022-12-23T06:29:34.503Z,16.10
2022-12-23T06:32:01.262Z,16.38
2022-12-23T06:34:28.190Z,14.65
2022-12-23T06:36:54.812Z,16.15
2022-12-23T06:39:21.585Z,15.23
2022-12-23T06:41:51.325Z,12.93
2022-12-23T06:44:18.245Z,13.40
2022-12-23T06:46:44.973Z,14.05
2022-12-23T06:49:13.680Z,14.35
2022-12-23T06:51:41.208Z,14.45
2022-12-23T06:54:10.784Z,16.38
2022-12-23T06:56:37.592Z,15.35
2022-12-23T06:59:04.253Z,16.40
2022-12-23T07:01:34.102Z,13.70
2022-12-23T07:04:02.002Z,15.27
2022-12-23T07:06:28.833Z,14.88
2022-12-23T07:08:55.452Z,17.02
2022-12-23T07:11:22.081Z,16.92
2022-12-23T07:13:49.047Z,17.20
2022-12-23T07:16:15.854Z,21.52
2022-12-23T07:18:42.608Z,19.85
2022-12-23T07:21:19.687Z,20.80
2022-12-23T07:23:51.335Z,25.80
2022-12-23T07:26:18.065Z,23.02
2022-12-23T07:28:48.858Z,18.85
2022-12-23T07:31:15.617Z,24.13
2022-12-23T07:33:42.670Z,22.55
2022-12-23T07:36:09.874Z,24.48
2022-12-23T07:38:36.542Z,20.95
2022-12-23T07:41:03.291Z,20.77
2022-12-23T07:43:29.980Z,19.92
2022-12-23T07:46:07.645Z,24.02
2022-12-23T07:48:34.422Z,25.63
2022-12-23T07:51:02.462Z,23.08
2022-12-23T07:53:29.587Z,24.88
2022-12-23T07:55:56.921Z,25.00
2022-12-23T07:58:24.144Z,21.55
2022-12-23T08:00:50.812Z,25.77
2022-12-23T08:03:17.572Z,22.88
2022-12-23T08:05:44.423Z,22.27
2022-12-23T08:08:12.001Z,24.70
2022-12-23T08:10:44.479Z,28.08
2022-12-23T08:13:14.605Z,24.85
2022-12-23T08:15:41.331Z,27.90
2022-12-23T08:18:07.951Z,26.13
2022-12-23T08:20:34.579Z,25.42
2022-12-23T08:23:01.333Z,22.67
2022-12-23T08:25:28.143Z,22.00
2022-12-23T08:27:54.769Z,23.90
2022-12-23T08:30:21.400Z,25.38
2022-12-23T08:32:49.198Z,27.27
2022-12-23T08:35:15.898Z,22.20
2022-12-23T08:37:42.568Z,27.02
2022-12-23T08:40:09.856Z,28.42
2022-12-23T08:42:36.806Z,24.83
2022-12-23T08:45:03.602Z,25.45
2022-12-23T08:47:30.194Z,25.30
2022-12-23T08:49:56.869Z,26.55
2022-12-23T08:52:23.609Z,24.67
2022-12-23T08:54:50.351Z,25.00
2022-12-23T08:57:18.015Z,24.60
2022-12-23T08:59:44.699Z,25.48
2022-12-23T09:02:11.931Z,24.35
2022-12-23T09:04:38.842Z,25.25
2022-12-23T09:07:08.744Z,27.52
2022-12-23T09:09:37.611Z,26.08
2022-12-23T09:12:04.702Z,22.38
2022-12-23T09:14:31.320Z,23.92
2022-12-23T09:16:57.942Z,23.95
2022-12-23T09:19:24.601Z,20.45
2022-12-23T09:21:51.254Z,19.30
2022-12-23T09:24:17.894Z,20.83
2022-12-23T09:26:44.771Z,21.77
2022-12-23T09:29:11.410Z,21.13
2022-12-23T09:31:38.257Z,23.95
2022-12-23T09:34:11.008Z,21.45
2022-12-23T09:36:37.986Z,23.55
2022-12-23T09:39:04.776Z,21.52
2022-12-23T09:41:43.708Z,22.77
2022-12-23T09:44:35.268Z,21.60
2022-12-23T09:47:05.336Z,19.35
2022-12-23T09:49:32.576Z,22.80
2022-12-23T09:52:03.122Z,18.67
2022-12-23T09:54:41.951Z,24.77
2022-12-23T09:57:21.966Z,21.45
2022-12-23T10:00:03.966Z,17.70
2022-12-23T10:02:42.465Z,20.58
2022-12-23T10:05:29.976Z,18.60
2022-12-23T10:08:04.242Z,17.23
2022-12-23T10:10:34.885Z,18.88
2022-12-23T10:13:04.258Z,19.17
2022-12-23T10:15:47.414Z,18.13
2022-12-23T10:18:26.281Z,20.67
2022-12-23T10:21:06.017Z,18.70
2022-12-23T10:23:38.448Z,19.98
2022-12-23T10:26:15.065Z,19.40
2022-12-23T10:28:41.642Z,17.55
2022-12-23T10:31:39.153Z,21.88
2022-12-23T10:34:18.623Z,19.52
2022-12-23T10:36:53.251Z,21.00
2022-12-23T10:39:37.259Z,17.08
2022-12-23T10:42:08.869Z,19.17
2022-12-23T10:44:54.159Z,20.52
2022-12-23T10:47:35.932Z,18.25
2022-12-23T10:50:34.880Z,18.92
2022-12-23T10:53:05.083Z,19.98
2022-12-23T10:55:35.221Z,22.15
2022-12-23T10:58:14.816Z,21.40
2022-12-23T11:00:44.866Z,16.67
2022-12-23T11:03:23.592Z,17.52
2022-12-23T11:05:52.367Z,20.80
2022-12-23T11:08:21.471Z,20.50
2022-12-23T11:10:48.555Z,20.10
2022-12-23T11:13:35.626Z,19.27
2022-12-23T11:16:26.958Z,20.08
2022-12-23T11:19:06.089Z,17.30
2022-12-23T11:21:33.822Z,20.20
2022-12-23T11:24:19.709Z,16.83
2022-12-23T11:26:48.410Z,19.45
2022-12-23T11:29:22.924Z,18.15
2022-12-23T11:31:49.952Z,17.00
2022-12-23T11:34:19.378Z,16.30
2022-12-23T11:37:01.852Z,15.88
2022-12-23T11:39:35.752Z,16.40
2022-12-23T11:42:12.848Z,16.48
2022-12-23T11:44:42.561Z,14.40
2022-12-23T11:47:30.856Z,16.20
2022-12-23T11:49:59.480Z,13.77
2022-12-23T11:52:29.067Z,13.55
2022-12-23T11:54:57.669Z,17.83
2022-12-23T11:57:39.289Z,16.23
2022-12-23T12:00:08.610Z,18.42
2022-12-23T12:02:41.991Z,19.67
2022-12-23T12:05:21.347Z,17.08
2022-12-23T12:07:48.863Z,20.27
2022-12-23T12:10:26.628Z,19.17
2022-12-23T12:13:05.827Z,20.50
2022-12-23T12:15:44.276Z,21.17
2022-12-23T12:18:16.276Z,22.40
2022-12-23T12:20:49.146Z,18.77
2022-12-23T12:23:25.734Z,20.30
2022-12-23T12:26:00.027Z,17.70
2022-12-23T12:28:34.943Z,16.75
2022-12-23T12:31:23.604Z,18.05
2022-12-23T12:34:01.386Z,17.75
2022-12-23T12:37:11.525Z,17.23
2022-12-23T12:39:43.597Z,17.75
2022-12-23T12:42:17.772Z,18.70
2022-12-23T12:45:05.644Z,14.57
2022-12-23T12:47:54.202Z,15.50
2022-12-23T12:50:29.464Z,16.88
2022-12-23T12:53:00.748Z,15.60
2022-12-23T12:55:33.732Z,16.08
2022-12-23T12:58:02.805Z,14.30
2022-12-23T13:00:30.630Z,15.63
2022-12-23T13:03:12.290Z,16.70
2022-12-23T13:05:53.405Z,14.35
2022-12-23T13:08:42.277Z,15.50
2022-12-23T13:11:33.813Z,12.70
2022-12-23T13:14:22.279Z,13.32
2022-12-23T13:17:08.814Z,14.55
2022-12-23T13:19:47.134Z,14.88
2022-12-23T13:22:18.515Z,15.30
2022-12-23T13:25:04.233Z,13.70
2022-12-23T13:27:41.079Z,13.30
2022-12-23T13:30:14.448Z,15.30
2022-12-23T13:33:00.927Z,12.57
2022-12-23T13:36:05.051Z,14.05
2022-12-23T13:38:56.387Z,14.52
2022-12-23T13:41:29.729Z,16.88
2022-12-23T13:44:00.242Z,16.27
2022-12-23T13:46:48.816Z,16.85
2022-12-23T13:49:40.401Z,16.40
2022-12-23T13:52:17.906Z,15.85
2022-12-23T13:54:53.388Z,17.70
2022-12-23T13:57:47.629Z,16.30
2022-12-23T14:00:17.824Z,14.80
2022-12-23T14:03:00.257Z,17.02
2022-12-23T14:05:38.020Z,17.00
2022-12-23T14:08:20.180Z,15.63
2022-12-23T14:11:11.637Z,13.93
2022-12-23T14:13:42.532Z,14.65
2022-12-23T14:16:14.809Z,16.55
2022-12-23T14:18:45.080Z,16.92
2022-12-23T14:21:39.021Z,14.70
2022-12-23T14:24:45.420Z,20.38
2022-12-23T14:27:32.064Z,22.30
2022-12-23T14:30:10.642Z,26.83
2022-12-23T14:32:52.115Z,28.20
2022-12-23T14:35:23.597Z,37.20
2022-12-23T14:38:15.060Z,31.83
2022-12-23T14:40:41.590Z,23.08
2022-12-23T14:43:25.362Z,19.40
2022-12-23T14:45:53.917Z,20.90
2022-12-23T14:48:41.619Z,22.77
2022-12-23T14:51:08.322Z,17.75
2022-12-23T14:53:57.837Z,17.90
2022-12-23T14:56:40.392Z,16.40
2022-12-23T14:59:30.676Z,17.13
2022-12-23T15:02:00.803Z,18.70
2022-12-23T15:04:31.740Z,15.48
2022-12-23T15:07:14.212Z,15.30
2022-12-23T15:09:54.518Z,17.98
2022-12-23T15:12:32.668Z,18.60
2022-12-23T15:15:05.172Z,14.10
2022-12-23T15:17:34.892Z,16.17
2022-12-23T15:20:10.945Z,14.32
2022-12-23T15:22:38.635Z,14.98
2022-12-23T15:25:06.197Z,16.52
2022-12-23T15:27:35.742Z,14.93
2022-12-23T15:30:02.648Z,13.40
2022-12-23T15:32:32.525Z,11.98
2022-12-23T15:35:05.301Z,13.10
2022-12-23T15:37:35.143Z,14.43
2022-12-23T15:40:12.697Z,13.32
2022-12-23T15:42:46.915Z,13.85
2022-12-23T15:45:30.479Z,13.70
2022-12-23T15:47:57.121Z,11.80
2022-12-23T15:50:23.894Z,11.77
2022-12-23T15:52:54.641Z,12.63
2022-12-23T15:55:33.009Z,12.10
2022-12-23T15:58:00.508Z,12.55
2022-12-23T16:00:40.623Z,11.38
2022-12-23T16:03:24.295Z,12.88
2022-12-23T16:05:51.128Z,13.68
2022-12-23T16:08:19.387Z,13.18
2022-12-23T16:11:21.100Z,15.70
2022-12-23T16:13:58.488Z,17.45
2022-12-23T16:16:40.113Z,18.95
2022-12-23T16:19:56.218Z,15.68
2022-12-23T16:22:28.787Z,20.80
2022-12-23T16:25:05.646Z,23.25
2022-12-23T16:27:36.007Z,23.40
2022-12-23T16:30:16.655Z,21.23
2022-12-23T16:32:53.025Z,26.92
2022-12-23T16:35:28.184Z,23.63
2022-12-23T16:38:22.380Z,19.70
2022-12-23T16:40:51.335Z,25.05
2022-12-23T16:43:19.541Z,20.55
2022-12-23T16:45:48.073Z,22.25
2022-12-23T16:48:40.230Z,19.65
2022-12-23T16:51:20.347Z,20.48
2022-12-23T16:53:48.310Z,20.98
2022-12-23T16:56:16.528Z,19.17
2022-12-23T16:58:43.833Z,22.92
2022-12-23T17:01:30.299Z,17.67
2022-12-23T17:03:57.214Z,17.27
2022-12-23T17:06:24.929Z,17.83
2022-12-23T17:08:53.327Z,18.95
2022-12-23T17:11:33.974Z,19.95
2022-12-23T17:14:05.614Z,21.70
2022-12-23T17:16:33.547Z,20.58
2022-12-23T17:19:00.366Z,19.63
2022-12-23T17:21:30.666Z,21.73
2022-12-23T17:24:16.132Z,24.80
2022-12-23T17:26:42.847Z,20.55
2022-12-23T17:29:10.379Z,24.73
2022-12-23T17:31:37.342Z,30.33
2022-12-23T17:34:04.227Z,32.53
2022-12-23T17:36:31.068Z,31.00
2022-12-23T17:38:57.865Z,29.73
2022-12-23T17:41:31.044Z,25.92
2022-12-23T17:43:58.295Z,22.88
2022-12-23T17:46:26.088Z,28.25
2022-12-23T17:48:53.037Z,23.58
2022-12-23T17:51:22.312Z,22.45
2022-12-23T17:53:56.828Z,22.60
2022-12-23T17:56:25.054Z,22.17
2022-12-23T17:58:54.795Z,21.55
2022-12-23T18:01:29.958Z,19.45
2022-12-23T18:03:57.753Z,21.38
2022-12-23T18:06:26.215Z,19.17
2022-12-23T18:08:52.870Z,22.90
2022-12-23T18:11:41.995Z,19.83
2022-12-23T18:14:18.216Z,19.38
2022-12-23T18:16:44.971Z,17.88
2022-12-23T18:19:18.605Z,17.17
2022-12-23T18:21:47.135Z,17.30
2022-12-23T18:24:13.992Z,17.35
2022-12-23T18:26:40.845Z,17.20
2022-12-23T18:29:07.575Z,16.48
2022-12-23T18:31:35.702Z,16.63
2022-12-23T18:34:02.453Z,17.67
2022-12-23T18:36:31.529Z,16.75
2022-12-23T18:38:58.483Z,15.85
2022-12-23T18:41:26.771Z,17.60
2022-12-23T18:43:54.141Z,15.48
2022-12-23T18:46:21.370Z,18.15
2022-12-23T18:48:48.669Z,15.43
2022-12-23T18:51:17.044Z,18.33
2022-12-23T18:53:44.214Z,16.70
2022-12-23T18:56:14.680Z,19.80
2022-12-23T18:58:41.762Z,16.77
2022-12-23T19:01:16.517Z,19.50
2022-12-23T19:03:43.746Z,19.90
2022-12-23T19:06:13.435Z,21.10
2022-12-23T19:08:40.815Z,20.20
2022-12-23T19:11:16.365Z,23.80
2022-12-23T19:13:43.114Z,25.90
2022-12-23T19:16:13.771Z,30.77
2022-12-23T19:18:40.645Z,28.83
2022-12-23T19:21:10.703Z,29.00
2022-12-23T19:23:39.768Z,28.08
2022-12-23T19:26:06.410Z,23.33
2022-12-23T19:28:33.688Z,22.80
2022-12-23T19:31:00.381Z,20.52
2022-12-23T19:33:27.210Z,21.77
2022-12-23T19:35:54.075Z,21.55
2022-12-23T19:38:21.249Z,23.73
2022-12-23T19:40:56.418Z,22.55
2022-12-23T19:43:23.062Z,19.02
2022-12-23T19:46:00.623Z,22.65
2022-12-23T19:48:28.136Z,22.85
2022-12-23T19:51:08.463Z,23.75
2022-12-23T19:53:35.725Z,23.75
2022-12-23T19:56:05.278Z,24.33
2022-12-23T19:58:33.567Z,25.10
2022-12-23T20:01:10.929Z,27.58
2022-12-23T20:03:38.401Z,28.10
2022-12-23T20:06:06.493Z,25.73
2022-12-23T20:08:34.419Z,26.58
2022-12-23T20:11:09.024Z,25.80
2022-12-23T20:13:36.331Z,28.33
2022-12-23T20:16:04.467Z,26.08
2022-12-23T20:18:31.465Z,24.08
2022-12-23T20:20:59.732Z,26.15
2022-12-23T20:23:27.245Z,28.75
2022-12-23T20:25:53.941Z,25.25
2022-12-23T20:28:21.246Z,26.35
2022-12-23T20:30:48.524Z,30.02
2022-12-23T20:33:15.852Z,28.98
2022-12-23T20:35:42.633Z,30.67
2022-12-23T20:38:09.415Z,29.40
2022-12-23T20:40:36.179Z,25.63
2022-12-23T20:43:08.112Z,27.08
2022-12-23T20:45:41.829Z,25.75
2022-12-23T20:48:09.067Z,24.38
2022-12-23T20:50:42.095Z,25.45
2022-12-23T20:53:11.834Z,22.83
2022-12-23T20:55:38.887Z,27.67
2022-12-23T20:58:24.722Z,23.67
2022-12-23T21:00:51.438Z,24.90
2022-12-23T21:03:18.162Z,25.88
2022-12-23T21:05:44.889Z,25.80
2022-12-23T21:08:14.574Z,29.52
2022-12-23T21:10:41.307Z,24.00
2022-12-23T21:13:08.074Z,25.38
2022-12-23T21:15:34.924Z,31.50
2022-12-23T21:18:01.550Z,25.27
2022-12-23T21:20:28.213Z,26.10
2022-12-23T21:22:54.878Z,25.75
2022-12-23T21:25:21.588Z,25.67
2022-12-23T21:27:48.229Z,24.10
2022-12-23T21:30:14.961Z,25.73
2022-12-23T21:32:41.702Z,24.55
2022-12-23T21:35:08.842Z,25.83
2022-12-23T21:37:35.631Z,27.85
2022-12-23T21:40:02.270Z,25.58
2022-12-23T21:42:28.998Z,26.70
2022-12-23T21:44:55.648Z,27.65
2022-12-23T21:47:22.323Z,28.45
2022-12-23T21:49:48.953Z,26.15
2022-12-23T21:52:15.613Z,26.02
2022-12-23T21:54:42.255Z,26.40
2022-12-23T21:57:08.974Z,26.80
2022-12-23T21:59:35.767Z,26.10
2022-12-23T22:02:02.563Z,29.23
2022-12-23T22:04:29.214Z,26.58
2022-12-23T22:06:55.979Z,27.92
2022-12-23T22:09:22.739Z,28.45
2022-12-23T22:11:49.517Z,27.13
2022-12-23T22:14:18.067Z,28.33
2022-12-23T22:16:44.894Z,25.88
2022-12-23T22:19:15.023Z,24.35
2022-12-23T22:21:42.802Z,25.80
2022-12-23T22:24:09.908Z,23.95
2022-12-23T22:26:36.734Z,23.25
2022-12-23T22:29:07.086Z,23.52
2022-12-23T22:31:40.266Z,25.10
2022-12-23T22:34:08.260Z,20.13
2022-12-23T22:36:35.037Z,21.98
2022-12-23T22:39:02.068Z,19.52
2022-12-23T22:41:29.737Z,20.38
2022-12-23T22:43:57.241Z,19.52
2022-12-23T22:46:24.648Z,19.17
2022-12-23T22:48:52.538Z,22.27
2022-12-23T22:51:26.166Z,20.17
2022-12-23T22:53:52.886Z,20.55
2022-12-23T22:56:20.826Z,22.27
2022-12-23T22:58:47.633Z,20.02
2022-12-23T23:01:23.611Z,19.73
2022-12-23T23:03:56.999Z,19.45
2022-12-23T23:06:29.228Z,20.40
2022-12-23T23:08:56.939Z,20.50
2022-12-23T23:11:24.627Z,19.58
2022-12-23T23:13:52.700Z,19.50
2022-12-23T23:16:19.428Z,16.27
2022-12-23T23:18:46.588Z,17.00
2022-12-23T23:21:14.915Z,18.63
2022-12-23T23:23:41.539Z,19.02
2022-12-23T23:26:10.326Z,19.00
2022-12-23T23:28:39.469Z,16.85
2022-12-23T23:31:40.482Z,18.88
2022-12-23T23:33:53.873Z,17.52
2022-12-23T23:36:21.018Z,17.25
2022-12-23T23:38:47.840Z,16.98
2022-12-23T23:41:18.862Z,16.20
2022-12-23T23:43:49.392Z,18.52
2022-12-23T23:46:16.128Z,14.60
2022-12-23T23:48:42.980Z,17.92
2022-12-23T23:51:10.769Z,13.55
2022-12-23T23:53:37.431Z,12.32
2022-12-23T23:56:06.590Z,12.88
2022-12-23T23:58:34.245Z,13.23
